createdAt,value
2023-05-20T00:00:06.863Z,99.90
2023-05-20T00:02:35.334Z,99.90
2023-05-20T00:05:04.001Z,99.90
2023-05-20T00:07:33.328Z,99.90
2023-05-20T00:10:01.777Z,99.90
2023-05-20T00:12:30.130Z,99.90
2023-05-20T00:14:58.614Z,99.90
2023-05-20T00:17:28.703Z,99.90
2023-05-20T00:19:57.170Z,99.90
2023-05-20T00:22:25.449Z,99.90
2023-05-20T00:24:54.015Z,99.90
2023-05-20T00:27:22.266Z,99.90
2023-05-20T00:29:50.789Z,99.90
2023-05-20T00:32:19.380Z,99.90
2023-05-20T00:34:58.568Z,99.90
2023-05-20T00:37:27.238Z,99.90
2023-05-20T00:39:55.570Z,99.90
2023-05-20T00:42:24.083Z,99.90
2023-05-20T00:44:52.849Z,99.90
2023-05-20T00:47:22.139Z,99.90
2023-05-20T00:49:51.438Z,99.90
2023-05-20T00:52:22.322Z,99.90
2023-05-20T00:54:51.613Z,99.90
2023-05-20T00:57:20.626Z,99.90
2023-05-20T00:59:49.074Z,99.90
2023-05-20T01:02:17.601Z,99.90
2023-05-20T01:04:47.448Z,99.90
2023-05-20T01:07:17.731Z,99.90
2023-05-20T01:09:47.624Z,99.90
2023-05-20T01:12:18.935Z,99.90
2023-05-20T01:14:49.678Z,99.90
2023-05-20T01:17:21.220Z,99.90
2023-05-20T01:19:50.324Z,99.90
2023-05-20T01:22:18.834Z,99.90
2023-05-20T01:24:49.508Z,99.90
2023-05-20T01:27:20.777Z,99.90
2023-05-20T01:29:50.636Z,99.90
2023-05-20T01:32:21.757Z,99.90
2023-05-20T01:34:51.232Z,99.90
2023-05-20T01:37:20.014Z,99.90
2023-05-20T01:39:50.957Z,99.90
2023-05-20T01:42:23.154Z,99.90
2023-05-20T01:44:51.798Z,99.90
2023-05-20T01:47:20.280Z,99.90
2023-05-20T01:49:49.763Z,99.90
2023-05-20T01:52:18.150Z,99.90
2023-05-20T01:54:51.122Z,99.90
2023-05-20T01:57:21.549Z,99.90
2023-05-20T01:59:51.645Z,99.90
2023-05-20T02:02:20.261Z,99.90
2023-05-20T02:04:50.028Z,99.90
2023-05-20T02:07:19.016Z,99.90
2023-05-20T02:09:47.806Z,99.90
2023-05-20T02:12:17.539Z,99.90
2023-05-20T02:14:47.841Z,99.90
2023-05-20T02:17:17.812Z,99.90
2023-05-20T02:19:46.819Z,99.90
2023-05-20T02:22:15.752Z,99.90
2023-05-20T02:24:46.088Z,99.90
2023-05-20T02:27:14.603Z,99.90
2023-05-20T02:29:44.114Z,99.90
2023-05-20T02:32:14.709Z,99.90
2023-05-20T02:34:43.032Z,99.90
2023-05-20T02:37:11.474Z,99.90
2023-05-20T02:39:39.939Z,99.90
2023-05-20T02:42:08.434Z,99.90
2023-05-20T02:44:36.773Z,99.90
2023-05-20T02:47:05.331Z,99.90
2023-05-20T02:49:35.051Z,99.90
2023-05-20T02:52:04.529Z,99.90
2023-05-20T02:54:33.043Z,99.90
2023-05-20T02:57:02.423Z,99.90
2023-05-20T02:59:30.772Z,99.90
2023-05-20T03:01:59.326Z,99.90
2023-05-20T03:04:28.251Z,99.90
2023-05-20T03:06:58.274Z,99.90
2023-05-20T03:09:26.755Z,99.90
2023-05-20T03:11:55.130Z,99.90
2023-05-20T03:14:23.478Z,99.90
2023-05-20T03:16:51.979Z,99.90
2023-05-20T03:19:20.679Z,99.90
2023-05-20T03:21:50.848Z,99.90
2023-05-20T03:24:20.613Z,99.90
2023-05-20T03:26:49.116Z,99.90
2023-05-20T03:29:19.255Z,99.90
2023-05-20T03:31:48.313Z,99.90
2023-05-20T03:34:16.840Z,99.90
2023-05-20T03:36:46.598Z,99.90
2023-05-20T03:39:15.157Z,99.90
2023-05-20T03:41:44.973Z,99.90
2023-05-20T03:44:13.416Z,99.90
2023-05-20T03:46:42.467Z,99.90
2023-05-20T03:49:10.893Z,99.90
2023-05-20T03:51:39.364Z,99.90
2023-05-20T03:54:12.594Z,99.90
2023-05-20T03:56:42.257Z,99.90
2023-05-20T03:59:12.308Z,99.90
2023-05-20T04:01:40.788Z,99.90
2023-05-20T04:04:09.265Z,99.90
2023-05-20T04:06:38.338Z,99.90
2023-05-20T04:09:07.016Z,99.90
2023-05-20T04:11:35.465Z,99.90
2023-05-20T04:14:04.060Z,99.90
2023-05-20T04:16:33.904Z,99.90
2023-05-20T04:19:02.918Z,99.90
2023-05-20T04:21:32.712Z,99.90
2023-05-20T04:24:01.056Z,99.90
2023-05-20T04:26:29.589Z,99.90
2023-05-20T04:28:59.241Z,99.90
2023-05-20T04:31:29.624Z,99.90
2023-05-20T04:33:59.542Z,99.90
2023-05-20T04:36:28.958Z,99.90
2023-05-20T04:38:57.630Z,99.90
2023-05-20T04:41:26.072Z,99.90
2023-05-20T04:43:54.374Z,99.90
2023-05-20T04:46:23.340Z,99.90
2023-05-20T04:48:51.700Z,99.90
2023-05-20T04:51:22.157Z,99.90
2023-05-20T04:53:50.966Z,99.90
2023-05-20T04:56:19.334Z,99.90
2023-05-20T04:58:47.791Z,99.90
2023-05-20T05:01:16.894Z,99.90
2023-05-20T05:03:45.464Z,99.90
2023-05-20T05:06:14.772Z,99.90
2023-05-20T05:08:44.861Z,99.90
2023-05-20T05:11:13.315Z,99.90
2023-05-20T05:13:41.645Z,99.90
2023-05-20T05:16:10.024Z,99.90
2023-05-20T05:18:38.434Z,99.90
2023-05-20T05:21:07.470Z,99.90
2023-05-20T05:23:37.578Z,99.90
2023-05-20T05:26:07.533Z,99.90
2023-05-20T05:28:35.998Z,99.90
2023-05-20T05:31:04.394Z,99.90
2023-05-20T05:33:32.904Z,99.90
2023-05-20T05:36:02.729Z,99.90
2023-05-20T05:38:31.253Z,99.90
2023-05-20T05:40:59.630Z,99.90
2023-05-20T05:43:29.698Z,99.10
2023-05-20T05:45:59.167Z,98.90
2023-05-20T05:48:28.067Z,99.10
2023-05-20T05:50:56.895Z,98.40
2023-05-20T05:53:25.602Z,98.00
2023-05-20T05:55:54.253Z,97.80
2023-05-20T05:58:22.622Z,97.10
2023-05-20T06:00:54.999Z,97.40
2023-05-20T06:03:24.555Z,96.80
2023-05-20T06:05:53.982Z,97.00
2023-05-20T06:08:22.489Z,96.40
2023-05-20T06:10:51.421Z,96.20
2023-05-20T06:13:19.983Z,96.20
2023-05-20T06:15:50.398Z,97.00
2023-05-20T06:18:20.390Z,95.50
2023-05-20T06:23:18.294Z,95.80
2023-05-20T06:26:16.313Z,95.60
2023-05-20T06:28:44.851Z,98.90
2023-05-20T06:31:13.660Z,99.30
2023-05-20T06:33:43.863Z,99.20
2023-05-20T06:36:14.558Z,99.10
2023-05-20T06:38:42.956Z,99.30
2023-05-20T06:41:13.720Z,99.80
2023-05-20T06:43:42.327Z,98.60
2023-05-20T06:46:29.588Z,95.90
2023-05-20T06:49:06.512Z,96.00
2023-05-20T06:51:35.237Z,96.90
2023-05-20T06:54:04.855Z,95.50
2023-05-20T06:56:33.316Z,95.80
2023-05-20T06:59:01.779Z,97.60
2023-05-20T07:01:31.233Z,98.30
2023-05-20T07:03:59.846Z,99.00
2023-05-20T07:06:30.765Z,97.30
2023-05-20T07:09:01.185Z,97.30
2023-05-20T07:11:30.099Z,98.10
2023-05-20T07:13:59.043Z,98.00
2023-05-20T07:16:29.680Z,97.70
2023-05-20T07:18:59.474Z,97.80
2023-05-20T07:21:30.080Z,97.50
2023-05-20T07:24:16.786Z,97.60
2023-05-20T07:26:46.039Z,95.00
2023-05-20T07:29:15.565Z,95.20
2023-05-20T07:31:44.293Z,96.70
2023-05-20T07:34:12.907Z,96.20
2023-05-20T07:36:43.940Z,96.10
2023-05-20T07:39:14.349Z,96.00
2023-05-20T07:41:47.215Z,96.20
2023-05-20T07:44:15.917Z,96.20
2023-05-20T07:46:49.677Z,96.30
2023-05-20T07:49:18.380Z,96.80
2023-05-20T07:51:49.180Z,97.00
2023-05-20T07:54:18.079Z,97.70
2023-05-20T07:56:49.056Z,97.30
2023-05-20T07:59:17.737Z,97.70
2023-05-20T08:01:49.040Z,98.50
2023-05-20T08:04:20.124Z,96.90
2023-05-20T08:06:50.856Z,96.20
2023-05-20T08:09:25.919Z,96.30
2023-05-20T08:11:57.215Z,95.50
2023-05-20T08:14:25.803Z,94.10
2023-05-20T08:16:55.702Z,94.10
2023-05-20T08:19:24.844Z,93.40
2023-05-20T08:21:54.780Z,94.20
2023-05-20T08:24:23.311Z,94.60
2023-05-20T08:26:52.086Z,94.70
2023-05-20T08:29:21.929Z,94.90
2023-05-20T08:31:50.353Z,99.90
2023-05-20T08:34:19.234Z,95.60
2023-05-20T08:36:47.593Z,95.60
2023-05-20T08:39:18.726Z,96.40
2023-05-20T08:41:48.590Z,97.60
2023-05-20T08:44:18.648Z,96.60
2023-05-20T08:46:47.230Z,95.40
2023-05-20T08:49:15.788Z,96.20
2023-05-20T08:51:44.305Z,96.20
2023-05-20T08:54:13.214Z,96.70
2023-05-20T08:56:43.318Z,96.10
2023-05-20T08:59:11.711Z,97.30
2023-05-20T09:01:43.178Z,97.60
2023-05-20T09:04:11.655Z,97.40
2023-05-20T09:06:46.078Z,96.70
2023-05-20T09:09:14.524Z,96.80
2023-05-20T09:11:44.618Z,97.60
2023-05-20T09:14:12.936Z,98.00
2023-05-20T09:16:41.704Z,99.10
2023-05-20T09:19:11.573Z,99.00
2023-05-20T09:21:42.733Z,99.90
2023-05-20T09:24:11.148Z,99.90
2023-05-20T09:26:39.494Z,98.50
2023-05-20T09:29:09.845Z,98.40
2023-05-20T09:31:39.277Z,98.00
2023-05-20T09:34:08.253Z,97.30
2023-05-20T09:36:37.092Z,97.00
2023-05-20T09:39:05.986Z,97.60
2023-05-20T09:41:35.590Z,97.60
2023-05-20T09:44:04.338Z,97.80
2023-05-20T09:46:34.571Z,97.70
2023-05-20T09:49:04.209Z,97.50
2023-05-20T09:51:32.926Z,97.30
2023-05-20T09:54:01.934Z,96.30
2023-05-20T09:56:31.101Z,95.90
2023-05-20T09:59:00.139Z,96.30
2023-05-20T10:01:28.503Z,96.10
2023-05-20T10:03:58.373Z,95.70
2023-05-20T10:06:41.767Z,95.60
2023-05-20T10:09:26.726Z,96.00
2023-05-20T10:11:59.968Z,95.10
2023-05-20T10:14:33.677Z,94.70
2023-05-20T10:17:10.156Z,94.80
2023-05-20T10:19:40.081Z,95.40
2023-05-20T10:22:09.778Z,95.80
2023-05-20T10:24:41.129Z,95.70
2023-05-20T10:27:10.316Z,96.50
2023-05-20T10:29:46.058Z,96.90
2023-05-20T10:32:25.183Z,96.00
2023-05-20T10:34:59.924Z,94.30
2023-05-20T10:37:28.820Z,94.60
2023-05-20T10:40:10.045Z,94.20
2023-05-20T10:42:38.573Z,95.10
2023-05-20T10:45:08.348Z,97.30
2023-05-20T10:47:37.303Z,96.30
2023-05-20T10:50:08.011Z,94.40
2023-05-20T10:52:38.161Z,94.60
2023-05-20T10:55:07.716Z,94.40
2023-05-20T10:57:36.510Z,94.80
2023-05-20T11:00:06.077Z,94.80
2023-05-20T11:02:35.072Z,95.80
2023-05-20T11:05:04.710Z,95.40
2023-05-20T11:07:34.732Z,96.20
2023-05-20T11:10:04.053Z,95.90
2023-05-20T11:12:34.118Z,94.90
2023-05-20T11:15:03.141Z,94.90
2023-05-20T11:17:31.697Z,95.10
2023-05-20T11:20:01.246Z,95.70
2023-05-20T11:22:29.843Z,95.50
2023-05-20T11:24:59.692Z,95.90
2023-05-20T11:27:29.353Z,95.40
2023-05-20T11:29:57.931Z,95.30
2023-05-20T11:32:27.101Z,95.10
2023-05-20T11:34:55.564Z,95.90
2023-05-20T11:37:25.124Z,96.30
2023-05-20T11:40:07.874Z,96.30
2023-05-20T11:42:36.499Z,96.50
2023-05-20T11:45:05.041Z,96.90
2023-05-20T11:47:33.451Z,97.40
2023-05-20T11:50:01.960Z,97.80
2023-05-20T11:52:30.367Z,98.00
2023-05-20T11:54:58.795Z,97.80
2023-05-20T11:57:28.583Z,97.90
2023-05-20T11:59:57.194Z,98.30
2023-05-20T12:02:25.621Z,98.70
2023-05-20T12:04:54.055Z,98.20
2023-05-20T12:07:23.566Z,98.20
2023-05-20T12:09:51.879Z,98.80
2023-05-20T12:12:20.380Z,98.30
2023-05-20T12:14:50.200Z,99.90
2023-05-20T12:17:18.656Z,99.90
2023-05-20T12:19:47.066Z,99.90
2023-05-20T12:22:15.584Z,99.90
2023-05-20T12:24:44.018Z,99.90
2023-05-20T12:27:12.901Z,99.90
2023-05-20T12:32:11.400Z,99.50
2023-05-20T12:34:39.797Z,99.90
2023-05-20T12:37:08.251Z,99.80
2023-05-20T12:39:37.032Z,99.90
2023-05-20T12:42:05.400Z,99.90
2023-05-20T12:44:33.806Z,99.90
2023-05-20T12:47:02.254Z,99.80
2023-05-20T12:49:32.156Z,99.90
2023-05-20T12:52:03.562Z,99.90
2023-05-20T12:54:34.257Z,99.90
2023-05-20T12:57:03.326Z,99.90
2023-05-20T12:59:31.715Z,99.80
2023-05-20T13:02:00.180Z,99.90
2023-05-20T13:04:28.518Z,99.90
2023-05-20T13:06:58.953Z,99.80
2023-05-20T13:09:27.287Z,99.90
2023-05-20T13:11:55.816Z,99.90
2023-05-20T13:14:24.267Z,99.90
2023-05-20T13:16:55.126Z,99.90
2023-05-20T13:19:24.052Z,99.90
2023-05-20T13:21:54.610Z,99.90
2023-05-20T13:24:24.380Z,99.90
2023-05-20T13:26:52.742Z,99.90
2023-05-20T13:29:21.279Z,99.90
2023-05-20T13:31:49.661Z,99.90
2023-05-20T13:34:18.033Z,99.90
2023-05-20T13:36:48.270Z,99.90
2023-05-20T13:39:16.828Z,99.70
2023-05-20T13:41:47.251Z,99.80
2023-05-20T13:44:15.885Z,99.70
2023-05-20T13:46:44.369Z,99.70
2023-05-20T13:49:12.858Z,99.90
2023-05-20T13:51:41.500Z,99.60
2023-05-20T13:54:10.161Z,99.50
2023-05-20T13:56:38.985Z,99.50
2023-05-20T13:59:08.891Z,99.70
2023-05-20T14:01:40.492Z,99.80
2023-05-20T14:04:09.964Z,99.70
2023-05-20T14:06:38.524Z,99.50
2023-05-20T14:09:08.813Z,99.30
2023-05-20T14:11:37.366Z,99.30
2023-05-20T14:14:05.952Z,99.30
2023-05-20T14:16:35.837Z,99.40
2023-05-20T14:19:04.981Z,99.30
2023-05-20T14:21:34.480Z,99.20
2023-05-20T14:24:02.954Z,98.90
2023-05-20T14:26:31.452Z,99.10
2023-05-20T14:28:59.845Z,98.80
2023-05-20T14:31:28.654Z,98.80
2023-05-20T14:33:58.674Z,98.80
2023-05-20T14:36:27.107Z,98.60
2023-05-20T14:38:55.560Z,97.90
2023-05-20T14:41:23.980Z,98.10
2023-05-20T14:46:21.176Z,97.80
2023-05-20T14:53:48.561Z,97.40
2023-05-20T14:56:17.043Z,97.50
2023-05-20T14:58:45.491Z,97.60
2023-05-20T15:01:14.037Z,98.00
2023-05-20T15:03:42.702Z,97.70
2023-05-20T15:06:11.233Z,97.00
2023-05-20T15:08:39.653Z,97.80
2023-05-20T15:16:10.437Z,99.90
2023-05-20T15:18:39.258Z,97.50
2023-05-20T15:21:07.685Z,97.80
2023-05-20T15:23:36.247Z,97.70
2023-05-20T15:26:04.664Z,97.70
2023-05-20T15:28:33.039Z,98.10
2023-05-20T15:31:01.521Z,98.40
2023-05-20T15:33:31.400Z,98.10
2023-05-20T15:36:00.225Z,98.10
2023-05-20T15:38:28.655Z,98.00
2023-05-20T15:40:57.338Z,97.90
2023-05-20T15:43:25.993Z,98.00
2023-05-20T15:45:54.834Z,98.00
2023-05-20T15:48:23.887Z,97.90
2023-05-20T15:50:53.696Z,97.70
2023-05-20T15:53:22.093Z,97.90
2023-05-20T15:55:51.720Z,97.80
2023-05-20T15:58:20.053Z,97.70
2023-05-20T16:00:49.859Z,98.20
2023-05-20T16:03:18.410Z,98.30
2023-05-20T16:05:47.100Z,98.60
2023-05-20T16:08:16.999Z,99.30
2023-05-20T16:10:45.749Z,98.80
2023-05-20T16:13:14.193Z,99.90
2023-05-20T16:15:42.699Z,99.90
2023-05-20T16:18:11.318Z,99.90
2023-05-20T16:20:39.839Z,99.90
2023-05-20T16:23:08.968Z,99.90
2023-05-20T16:25:38.812Z,99.90
2023-05-20T16:28:07.264Z,99.90
2023-05-20T16:30:36.347Z,99.90
2023-05-20T16:33:05.088Z,99.90
2023-05-20T16:35:33.674Z,99.90
2023-05-20T16:38:02.149Z,99.90
2023-05-20T16:40:30.858Z,99.90
2023-05-20T16:43:00.947Z,99.90
2023-05-20T17:20:14.846Z,98.80
2023-05-20T17:22:43.334Z,99.10
2023-05-20T17:25:11.788Z,99.20
2023-05-20T17:27:40.203Z,99.30
2023-05-20T17:30:09.346Z,99.30
2023-05-20T17:32:38.726Z,99.30
2023-05-20T17:35:07.845Z,99.50
2023-05-20T17:37:38.024Z,99.60
2023-05-20T17:40:07.256Z,99.50
2023-05-20T17:42:35.839Z,99.60
2023-05-20T17:45:04.383Z,99.80
2023-05-20T17:47:32.864Z,99.70
2023-05-20T17:50:02.766Z,99.80
2023-05-20T17:52:31.288Z,99.80
2023-05-20T17:55:01.213Z,99.80
2023-05-20T17:57:29.745Z,99.90
2023-05-20T17:59:58.127Z,99.90
2023-05-20T18:02:26.638Z,99.90
2023-05-20T18:04:55.279Z,99.90
2023-05-20T18:07:23.664Z,99.90
2023-05-20T18:09:52.116Z,99.90
2023-05-20T18:37:08.728Z,99.90
2023-05-20T18:39:37.297Z,99.90
2023-05-20T18:42:06.207Z,99.90
2023-05-20T18:44:34.675Z,99.90
2023-05-20T18:47:03.245Z,99.90
2023-05-20T18:49:31.808Z,99.90
2023-05-20T18:52:00.157Z,99.90
2023-05-20T18:54:30.000Z,99.90
2023-05-20T18:56:58.485Z,99.90
2023-05-20T18:59:27.028Z,99.90
2023-05-20T19:01:55.400Z,99.90
2023-05-20T19:04:24.000Z,99.90
2023-05-20T19:06:53.097Z,99.90
2023-05-20T19:09:21.730Z,99.90
2023-05-20T19:11:56.850Z,99.90
2023-05-20T19:14:25.316Z,99.90
2023-05-20T19:16:53.842Z,99.80
2023-05-20T19:19:22.299Z,99.50
2023-05-20T19:21:50.974Z,99.50
2023-05-20T19:24:19.651Z,99.30
2023-05-20T19:26:48.032Z,99.30
2023-05-20T19:29:18.003Z,99.10
2023-05-20T19:31:46.638Z,99.10
2023-05-20T19:34:15.053Z,98.80
2023-05-20T19:36:43.762Z,98.50
2023-05-20T19:39:12.381Z,98.50
2023-05-20T19:41:40.916Z,98.20
2023-05-20T19:44:10.667Z,98.10
2023-05-20T19:46:40.877Z,97.80
2023-05-20T19:49:09.518Z,97.60
2023-05-20T19:51:37.997Z,97.50
2023-05-20T19:54:06.405Z,97.60
2023-05-20T19:56:34.814Z,97.60
2023-05-20T19:59:03.980Z,97.80
2023-05-20T20:01:32.600Z,98.00
2023-05-20T20:04:02.680Z,98.20
2023-05-20T20:06:31.108Z,98.40
2023-05-20T20:08:59.470Z,98.90
2023-05-20T20:11:28.292Z,99.20
2023-05-20T20:13:58.595Z,99.10
2023-05-20T20:16:27.224Z,99.60
2023-05-20T20:18:55.778Z,99.90
2023-05-20T20:21:26.443Z,99.90
2023-05-20T20:23:54.947Z,99.90
2023-05-20T20:26:26.034Z,99.90
2023-05-20T20:28:54.564Z,99.90
2023-05-20T20:31:22.914Z,99.90
2023-05-20T20:33:51.521Z,99.90
2023-05-20T20:36:19.928Z,99.90
2023-05-20T20:38:50.344Z,99.90
2023-05-20T20:41:19.033Z,99.90
2023-05-20T20:43:47.478Z,99.90
2023-05-20T20:46:15.983Z,99.90
2023-05-20T20:48:46.023Z,99.90
2023-05-20T20:51:14.549Z,99.90
2023-05-20T20:53:43.383Z,99.90
2023-05-20T20:56:13.238Z,99.90
2023-05-20T20:58:41.551Z,99.90
2023-05-20T21:01:10.453Z,99.90
2023-05-20T21:03:40.430Z,99.90
2023-05-20T21:06:09.041Z,99.90
2023-05-20T21:08:37.384Z,99.90
2023-05-20T21:11:06.637Z,99.90
2023-05-20T21:13:38.211Z,99.90
2023-05-20T21:16:07.757Z,99.90
2023-05-20T21:18:36.332Z,99.90
2023-05-20T21:21:05.823Z,99.90
2023-05-20T21:23:34.113Z,99.90
2023-05-20T21:26:02.538Z,99.90
2023-05-20T21:28:31.054Z,99.90
2023-05-20T21:31:00.750Z,99.90
2023-05-20T21:33:29.261Z,99.90
2023-05-20T21:35:57.754Z,99.90
2023-05-20T21:38:26.139Z,99.90
2023-05-20T21:40:54.476Z,99.90
2023-05-20T21:43:22.788Z,99.90
2023-05-20T21:45:51.977Z,99.90
2023-05-20T21:48:22.004Z,99.90
2023-05-20T21:50:50.437Z,99.90
2023-05-20T21:53:18.766Z,99.90
2023-05-20T21:55:47.092Z,99.90
2023-05-20T21:58:15.724Z,99.90
2023-05-20T22:00:44.530Z,99.90
2023-05-20T22:03:13.343Z,99.90
2023-05-20T22:05:45.930Z,99.90
2023-05-20T22:08:14.720Z,99.90
2023-05-20T22:10:43.916Z,99.90
2023-05-20T22:13:13.684Z,99.90
2023-05-20T22:15:42.286Z,99.90
2023-05-20T22:18:12.493Z,99.90
2023-05-20T22:20:42.550Z,99.90
2023-05-20T22:23:12.684Z,99.90
2023-05-20T22:25:41.025Z,99.90
2023-05-20T22:28:09.413Z,99.90
2023-05-20T22:30:38.446Z,99.90
2023-05-20T22:33:06.843Z,99.90
2023-05-20T22:35:35.481Z,99.90
2023-05-20T22:38:04.064Z,99.90
2023-05-20T22:40:33.878Z,99.90
2023-05-20T22:43:02.233Z,99.90
2023-05-20T22:45:30.524Z,99.90
2023-05-20T22:47:58.923Z,99.90
2023-05-20T22:50:27.880Z,99.90
2023-05-20T22:52:56.321Z,99.90
2023-05-20T22:55:24.629Z,99.90
2023-05-20T22:57:54.355Z,99.90
2023-05-20T23:00:23.477Z,99.90
2023-05-20T23:02:52.719Z,99.90
2023-05-20T23:05:21.223Z,99.90
2023-05-20T23:07:51.275Z,99.90
2023-05-20T23:10:19.551Z,99.90
2023-05-20T23:12:47.985Z,99.90
2023-05-20T23:15:19.300Z,99.90
2023-05-20T23:17:49.465Z,99.90
2023-05-20T23:20:19.263Z,99.90
2023-05-20T23:22:47.673Z,99.90
2023-05-20T23:25:16.084Z,99.90
2023-05-20T23:27:44.432Z,99.90
2023-05-20T23:30:12.935Z,99.90
2023-05-20T23:32:42.719Z,99.90
2023-05-20T23:35:13.213Z,99.90
2023-05-20T23:37:42.257Z,99.90
2023-05-20T23:40:10.949Z,99.90
2023-05-20T23:42:39.264Z,99.90
2023-05-20T23:45:07.996Z,99.90
2023-05-20T23:47:36.649Z,99.90
2023-05-20T23:50:06.875Z,99.90
2023-05-20T23:52:35.210Z,99.90
2023-05-20T23:55:03.531Z,99.90
2023-05-20T23:57:31.847Z,99.90
